sensor_id;sensor_type;location;lat;lon;timestamp;pressure;altitude;pressure_sealevel;temperature;humidity
67397;BME280;57728;50.448;18.824;2023-02-21T00:02:13;97194.78;;;9.91;61.38
67397;BME280;57728;50.448;18.824;2023-02-21T00:04:34;97215.31;;;9.98;61.17
67397;BME280;57728;50.448;18.824;2023-02-21T00:06:54;97234.00;;;10.12;61.21
67397;BME280;57728;50.448;18.824;2023-02-21T00:09:13;97225.19;;;10.05;61.13
67397;BME280;57728;50.448;18.824;2023-02-21T00:11:34;97211.75;;;9.98;61.26
67397;BME280;57728;50.448;18.824;2023-02-21T00:13:59;97278.69;;;10.33;61.28
67397;BME280;57728;50.448;18.824;2023-02-21T00:16:18;97245.28;;;10.21;61.17
67397;BME280;57728;50.448;18.824;2023-02-21T00:18:39;97192.06;;;9.74;61.26
67397;BME280;57728;50.448;18.824;2023-02-21T00:21:00;97207.41;;;9.80;61.26
67397;BME280;57728;50.448;18.824;2023-02-21T00:23:19;97226.19;;;9.98;61.62
67397;BME280;57728;50.448;18.824;2023-02-21T00:25:40;97265.19;;;10.21;61.95
67397;BME280;57728;50.448;18.824;2023-02-21T00:28:00;97264.50;;;9.97;63.27
67397;BME280;57728;50.448;18.824;2023-02-21T00:30:20;97281.97;;;10.01;64.20
67397;BME280;57728;50.448;18.824;2023-02-21T00:32:42;97135.22;;;8.92;65.10
67397;BME280;57728;50.448;18.824;2023-02-21T00:35:04;97214.47;;;9.35;66.00
67397;BME280;57728;50.448;18.824;2023-02-21T00:37:24;97114.63;;;8.68;66.22
67397;BME280;57728;50.448;18.824;2023-02-21T00:39:45;97273.31;;;9.58;66.91
67397;BME280;57728;50.448;18.824;2023-02-21T00:42:06;97269.34;;;9.49;67.31
67397;BME280;57728;50.448;18.824;2023-02-21T00:44:26;97161.44;;;8.75;67.83
67397;BME280;57728;50.448;18.824;2023-02-21T00:46:48;97259.97;;;9.28;68.73
67397;BME280;57728;50.448;18.824;2023-02-21T00:49:08;97246.47;;;9.04;69.57
67397;BME280;57728;50.448;18.824;2023-02-21T00:51:27;97207.50;;;8.70;70.46
67397;BME280;57728;50.448;18.824;2023-02-21T00:53:48;97184.16;;;8.45;70.84
67397;BME280;57728;50.448;18.824;2023-02-21T00:56:08;97276.13;;;8.82;71.55
67397;BME280;57728;50.448;18.824;2023-02-21T00:58:29;97243.13;;;8.62;72.19
67397;BME280;57728;50.448;18.824;2023-02-21T01:00:50;97188.50;;;8.22;72.46
67397;BME280;57728;50.448;18.824;2023-02-21T01:03:10;97264.59;;;8.63;72.91
67397;BME280;57728;50.448;18.824;2023-02-21T01:05:31;97250.56;;;8.54;73.32
67397;BME280;57728;50.448;18.824;2023-02-21T01:07:52;97259.19;;;8.51;73.71
67397;BME280;57728;50.448;18.824;2023-02-21T01:10:15;97111.09;;;7.55;74.12
67397;BME280;57728;50.448;18.824;2023-02-21T01:12:35;97178.47;;;7.87;74.38
67397;BME280;57728;50.448;18.824;2023-02-21T01:14:56;97218.91;;;8.13;75.06
67397;BME280;57728;50.448;18.824;2023-02-21T01:17:16;97184.03;;;7.92;75.60
67397;BME280;57728;50.448;18.824;2023-02-21T01:19:36;97183.47;;;7.90;75.64
67397;BME280;57728;50.448;18.824;2023-02-21T01:21:57;97249.22;;;8.21;75.96
67397;BME280;57728;50.448;18.824;2023-02-21T01:24:17;97217.88;;;8.02;76.04
67397;BME280;57728;50.448;18.824;2023-02-21T01:26:39;97117.78;;;7.41;76.11
67397;BME280;57728;50.448;18.824;2023-02-21T01:28:59;97163.25;;;7.63;76.63
67397;BME280;57728;50.448;18.824;2023-02-21T01:31:20;97233.44;;;8.18;76.57
67397;BME280;57728;50.448;18.824;2023-02-21T01:33:40;97157.03;;;7.62;76.81
67397;BME280;57728;50.448;18.824;2023-02-21T01:36:04;97172.47;;;7.73;76.95
67397;BME280;57728;50.448;18.824;2023-02-21T01:38:24;97106.44;;;7.32;77.13
67397;BME280;57728;50.448;18.824;2023-02-21T01:40:44;97151.25;;;7.70;77.37
67397;BME280;57728;50.448;18.824;2023-02-21T01:43:21;97215.25;;;8.07;77.75
67397;BME280;57728;50.448;18.824;2023-02-21T01:45:48;97173.53;;;7.84;77.97
67397;BME280;57728;50.448;18.824;2023-02-21T01:48:14;97218.69;;;7.90;78.21
67397;BME280;57728;50.448;18.824;2023-02-21T01:50:39;97180.63;;;7.85;78.30
67397;BME280;57728;50.448;18.824;2023-02-21T01:53:06;97206.66;;;8.10;78.33
67397;BME280;57728;50.448;18.824;2023-02-21T01:55:33;97067.97;;;7.18;78.61
67397;BME280;57728;50.448;18.824;2023-02-21T01:57:56;97177.09;;;7.85;78.96
67397;BME280;57728;50.448;18.824;2023-02-21T02:00:18;97157.84;;;7.74;78.61
67397;BME280;57728;50.448;18.824;2023-02-21T02:05:20;97067.97;;;7.30;78.92
67397;BME280;57728;50.448;18.824;2023-02-21T02:07:41;97065.63;;;7.34;78.91
67397;BME280;57728;50.448;18.824;2023-02-21T02:10:03;97158.94;;;7.85;79.01
67397;BME280;57728;50.448;18.824;2023-02-21T02:22:50;97176.13;;;8.03;79.86
67397;BME280;57728;50.448;18.824;2023-02-21T02:25:28;97205.72;;;8.16;80.07
67397;BME280;57728;50.448;18.824;2023-02-21T02:38:56;97071.03;;;7.34;80.57
67397;BME280;57728;50.448;18.824;2023-02-21T02:41:16;97195.94;;;8.15;80.83
67397;BME280;57728;50.448;18.824;2023-02-21T02:44:01;97162.81;;;7.89;80.91
67397;BME280;57728;50.448;18.824;2023-02-21T02:46:22;97208.91;;;8.13;80.94
67397;BME280;57728;50.448;18.824;2023-02-21T02:51:03;97193.47;;;8.14;81.18
67397;BME280;57728;50.448;18.824;2023-02-21T02:53:10;97198.41;;;8.17;81.36
67397;BME280;57728;50.448;18.824;2023-02-21T02:57:53;97179.78;;;8.08;81.37
67397;BME280;57728;50.448;18.824;2023-02-21T02:59:56;97185.81;;;8.22;81.32
67397;BME280;57728;50.448;18.824;2023-02-21T03:02:18;97200.41;;;8.21;81.62
67397;BME280;57728;50.448;18.824;2023-02-21T03:07:30;97185.09;;;8.27;81.52
67397;BME280;57728;50.448;18.824;2023-02-21T03:15:20;97180.16;;;8.36;81.23
67397;BME280;57728;50.448;18.824;2023-02-21T03:17:31;97183.44;;;8.38;81.25
67397;BME280;57728;50.448;18.824;2023-02-21T03:19:43;97184.28;;;8.38;81.17
67397;BME280;57728;50.448;18.824;2023-02-21T03:21:54;97159.28;;;8.24;81.14
67397;BME280;57728;50.448;18.824;2023-02-21T03:24:03;97191.13;;;8.29;81.06
67397;BME280;57728;50.448;18.824;2023-02-21T03:26:14;97195.22;;;8.43;80.92
67397;BME280;57728;50.448;18.824;2023-02-21T03:28:24;97171.41;;;8.34;80.99
67397;BME280;57728;50.448;18.824;2023-02-21T03:30:29;97162.69;;;8.32;80.81
67397;BME280;57728;50.448;18.824;2023-02-21T03:32:37;97091.53;;;8.01;80.72
67397;BME280;57728;50.448;18.824;2023-02-21T03:34:51;97098.72;;;7.95;80.57
67397;BME280;57728;50.448;18.824;2023-02-21T03:36:55;97171.88;;;8.31;80.80
67397;BME280;57728;50.448;18.824;2023-02-21T03:38:58;97177.06;;;8.32;80.61
67397;BME280;57728;50.448;18.824;2023-02-21T03:41:00;97192.28;;;8.45;80.71
67397;BME280;57728;50.448;18.824;2023-02-21T03:43:04;97168.00;;;8.26;80.80
67397;BME280;57728;50.448;18.824;2023-02-21T03:45:22;97156.56;;;8.24;80.88
67397;BME280;57728;50.448;18.824;2023-02-21T03:47:38;97191.56;;;8.38;80.98
67397;BME280;57728;50.448;18.824;2023-02-21T03:49:39;97157.25;;;8.20;81.18
67397;BME280;57728;50.448;18.824;2023-02-21T03:51:42;96979.69;;;7.05;80.99
67397;BME280;57728;50.448;18.824;2023-02-21T03:53:44;97183.53;;;8.31;81.16
67397;BME280;57728;50.448;18.824;2023-02-21T03:55:46;97075.13;;;7.36;81.05
67397;BME280;57728;50.448;18.824;2023-02-21T03:57:55;97113.69;;;7.74;81.22
67397;BME280;57728;50.448;18.824;2023-02-21T03:59:57;97068.66;;;7.37;81.08
67397;BME280;57728;50.448;18.824;2023-02-21T04:01:59;97197.22;;;8.13;81.54
67397;BME280;57728;50.448;18.824;2023-02-21T04:04:04;97194.41;;;8.19;81.60
67397;BME280;57728;50.448;18.824;2023-02-21T04:06:05;97059.84;;;7.30;81.68
67397;BME280;57728;50.448;18.824;2023-02-21T04:08:08;97148.19;;;7.79;81.58
67397;BME280;57728;50.448;18.824;2023-02-21T04:10:10;96989.56;;;7.00;81.62
67397;BME280;57728;50.448;18.824;2023-02-21T04:12:17;97187.56;;;8.17;81.83
67397;BME280;57728;50.448;18.824;2023-02-21T04:14:19;97193.22;;;8.15;81.97
67397;BME280;57728;50.448;18.824;2023-02-21T04:16:21;97181.22;;;8.11;81.93
67397;BME280;57728;50.448;18.824;2023-02-21T04:18:25;97051.84;;;7.35;81.71
67397;BME280;57728;50.448;18.824;2023-02-21T04:20:28;97158.94;;;7.97;81.85
67397;BME280;57728;50.448;18.824;2023-02-21T04:22:33;97087.53;;;7.44;81.88
67397;BME280;57728;50.448;18.824;2023-02-21T04:24:34;97148.34;;;7.84;81.99
67397;BME280;57728;50.448;18.824;2023-02-21T04:26:36;97181.81;;;8.13;81.94
67397;BME280;57728;50.448;18.824;2023-02-21T04:28:39;97039.22;;;7.29;81.87
67397;BME280;57728;50.448;18.824;2023-02-21T04:30:40;97062.06;;;7.33;81.80
67397;BME280;57728;50.448;18.824;2023-02-21T04:32:42;97180.84;;;8.19;81.91
67397;BME280;57728;50.448;18.824;2023-02-21T04:34:48;97123.13;;;7.83;81.81
67397;BME280;57728;50.448;18.824;2023-02-21T04:36:50;97201.25;;;8.22;81.78
67397;BME280;57728;50.448;18.824;2023-02-21T04:38:52;97155.97;;;7.99;81.81
67397;BME280;57728;50.448;18.824;2023-02-21T04:40:54;97218.34;;;8.22;81.70
67397;BME280;57728;50.448;18.824;2023-02-21T04:42:55;97203.97;;;8.22;81.70
67397;BME280;57728;50.448;18.824;2023-02-21T04:44:57;97198.78;;;8.20;81.73
67397;BME280;57728;50.448;18.824;2023-02-21T04:46:59;97190.88;;;8.19;81.80
67397;BME280;57728;50.448;18.824;2023-02-21T04:49:02;97153.88;;;7.89;81.80
67397;BME280;57728;50.448;18.824;2023-02-21T04:51:03;97082.22;;;7.37;81.90
67397;BME280;57728;50.448;18.824;2023-02-21T04:53:06;97150.22;;;7.83;81.91
67397;BME280;57728;50.448;18.824;2023-02-21T04:55:08;97189.81;;;8.08;81.99
67397;BME280;57728;50.448;18.824;2023-02-21T04:57:09;97139.13;;;7.73;81.90
67397;BME280;57728;50.448;18.824;2023-02-21T04:59:12;97205.50;;;8.18;81.97
67397;BME280;57728;50.448;18.824;2023-02-21T05:01:15;97206.06;;;8.20;81.96
67397;BME280;57728;50.448;18.824;2023-02-21T05:03:17;97042.75;;;7.06;81.72
67397;BME280;57728;50.448;18.824;2023-02-21T05:05:19;97106.84;;;7.60;81.77
67397;BME280;57728;50.448;18.824;2023-02-21T05:07:21;97201.72;;;8.19;81.88
67397;BME280;57728;50.448;18.824;2023-02-21T05:09:22;97203.59;;;8.18;81.87
67397;BME280;57728;50.448;18.824;2023-02-21T05:11:26;97145.63;;;7.84;81.91
67397;BME280;57728;50.448;18.824;2023-02-21T05:13:28;97212.56;;;8.19;81.85
67397;BME280;57728;50.448;18.824;2023-02-21T05:15:29;97137.03;;;7.75;81.93
67397;BME280;57728;50.448;18.824;2023-02-21T05:17:31;97218.81;;;8.19;81.96
67397;BME280;57728;50.448;18.824;2023-02-21T05:19:33;97036.88;;;7.21;81.86
67397;BME280;57728;50.448;18.824;2023-02-21T05:21:35;97118.03;;;7.63;81.79
67397;BME280;57728;50.448;18.824;2023-02-21T05:23:41;97138.06;;;7.86;81.81
67397;BME280;57728;50.448;18.824;2023-02-21T05:25:55;97157.06;;;7.98;81.83
67397;BME280;57728;50.448;18.824;2023-02-21T05:27:56;97117.56;;;7.78;81.81
67397;BME280;57728;50.448;18.824;2023-02-21T05:29:59;97153.75;;;7.96;81.72
67397;BME280;57728;50.448;18.824;2023-02-21T05:32:00;97097.06;;;7.58;81.87
67397;BME280;57728;50.448;18.824;2023-02-21T05:34:02;97173.56;;;8.08;81.92
67397;BME280;57728;50.448;18.824;2023-02-21T05:36:04;97185.91;;;8.16;81.82
67397;BME280;57728;50.448;18.824;2023-02-21T05:38:06;97130.19;;;7.84;81.78
67397;BME280;57728;50.448;18.824;2023-02-21T05:40:12;97195.59;;;8.12;81.98
67397;BME280;57728;50.448;18.824;2023-02-21T05:42:15;97168.59;;;7.93;81.92
67397;BME280;57728;50.448;18.824;2023-02-21T05:44:17;97171.66;;;7.97;81.88
67397;BME280;57728;50.448;18.824;2023-02-21T05:46:23;97183.91;;;8.11;81.88
67397;BME280;57728;50.448;18.824;2023-02-21T05:48:27;97200.78;;;8.13;82.02
67397;BME280;57728;50.448;18.824;2023-02-21T05:50:28;97189.34;;;8.11;81.92
67397;BME280;57728;50.448;18.824;2023-02-21T05:52:30;97137.50;;;7.72;81.86
67397;BME280;57728;50.448;18.824;2023-02-21T05:54:32;97207.16;;;8.19;81.88
67397;BME280;57728;50.448;18.824;2023-02-21T05:56:38;97036.03;;;7.09;81.70
67397;BME280;57728;50.448;18.824;2023-02-21T05:58:41;97180.63;;;8.21;81.88
67397;BME280;57728;50.448;18.824;2023-02-21T06:00:43;97138.66;;;7.88;81.80
67397;BME280;57728;50.448;18.824;2023-02-21T06:02:45;97191.81;;;8.24;81.63
67397;BME280;57728;50.448;18.824;2023-02-21T06:04:47;97067.63;;;7.50;81.73
67397;BME280;57728;50.448;18.824;2023-02-21T06:06:50;97179.56;;;8.22;81.82
67397;BME280;57728;50.448;18.824;2023-02-21T06:08:51;97117.69;;;7.71;81.71
67397;BME280;57728;50.448;18.824;2023-02-21T06:10:52;97175.09;;;8.04;81.67
67397;BME280;57728;50.448;18.824;2023-02-21T06:12:55;97151.38;;;7.87;81.77
67397;BME280;57728;50.448;18.824;2023-02-21T06:14:56;97050.19;;;7.34;81.73
67397;BME280;57728;50.448;18.824;2023-02-21T06:16:59;97066.69;;;7.33;81.70
67397;BME280;57728;50.448;18.824;2023-02-21T06:19:05;97040.41;;;7.21;81.73
67397;BME280;57728;50.448;18.824;2023-02-21T06:21:08;97098.69;;;7.36;81.88
67397;BME280;57728;50.448;18.824;2023-02-21T06:23:10;97159.16;;;7.84;82.02
67397;BME280;57728;50.448;18.824;2023-02-21T06:25:12;97225.41;;;8.23;82.01
67397;BME280;57728;50.448;18.824;2023-02-21T06:27:13;97047.59;;;7.16;81.83
67397;BME280;57728;50.448;18.824;2023-02-21T06:29:15;97098.13;;;7.46;82.07
67397;BME280;57728;50.448;18.824;2023-02-21T06:31:19;97229.56;;;8.26;81.98
67397;BME280;57728;50.448;18.824;2023-02-21T06:33:22;97188.63;;;7.92;81.94
67397;BME280;57728;50.448;18.824;2023-02-21T06:35:24;97116.41;;;7.62;81.96
67397;BME280;57728;50.448;18.824;2023-02-21T06:37:26;97197.47;;;8.11;81.89
67397;BME280;57728;50.448;18.824;2023-02-21T06:39:28;97187.13;;;7.96;81.97
67397;BME280;57728;50.448;18.824;2023-02-21T06:41:30;97232.38;;;8.31;82.00
67397;BME280;57728;50.448;18.824;2023-02-21T06:43:33;97224.25;;;8.19;81.91
67397;BME280;57728;50.448;18.824;2023-02-21T06:45:38;97190.63;;;7.97;81.82
67397;BME280;57728;50.448;18.824;2023-02-21T06:47:39;97117.41;;;7.49;81.68
67397;BME280;57728;50.448;18.824;2023-02-21T06:49:42;97131.22;;;7.60;81.39
67397;BME280;57728;50.448;18.824;2023-02-21T06:51:44;97207.59;;;8.16;81.61
67397;BME280;57728;50.448;18.824;2023-02-21T06:53:49;97168.81;;;7.91;81.65
67397;BME280;57728;50.448;18.824;2023-02-21T06:55:52;97090.34;;;7.49;81.62
67397;BME280;57728;50.448;18.824;2023-02-21T06:57:53;97239.56;;;8.37;81.74
67397;BME280;57728;50.448;18.824;2023-02-21T06:59:57;97244.16;;;8.37;81.82
67397;BME280;57728;50.448;18.824;2023-02-21T07:02:00;97240.63;;;8.36;81.63
67397;BME280;57728;50.448;18.824;2023-02-21T07:04:03;97185.09;;;7.91;81.60
67397;BME280;57728;50.448;18.824;2023-02-21T07:06:04;97116.25;;;7.45;81.86
67397;BME280;57728;50.448;18.824;2023-02-21T07:08:07;97254.44;;;8.35;81.91
67397;BME280;57728;50.448;18.824;2023-02-21T07:10:08;97219.53;;;8.15;81.94
67397;BME280;57728;50.448;18.824;2023-02-21T07:12:10;97106.38;;;7.51;81.90
67397;BME280;57728;50.448;18.824;2023-02-21T07:14:13;97152.81;;;7.78;81.85
67397;BME280;57728;50.448;18.824;2023-02-21T07:16:15;97025.31;;;7.02;81.77
67397;BME280;57728;50.448;18.824;2023-02-21T07:18:17;97267.63;;;8.43;81.85
67397;BME280;57728;50.448;18.824;2023-02-21T07:20:20;97194.06;;;8.04;81.92
67397;BME280;57728;50.448;18.824;2023-02-21T07:22:22;97198.66;;;8.15;81.80
67397;BME280;57728;50.448;18.824;2023-02-21T07:24:27;97138.41;;;7.66;81.50
67397;BME280;57728;50.448;18.824;2023-02-21T07:26:29;97264.94;;;8.55;81.51
67397;BME280;57728;50.448;18.824;2023-02-21T07:28:30;97159.16;;;7.96;81.37
67397;BME280;57728;50.448;18.824;2023-02-21T07:30:32;97229.66;;;8.43;81.55
67397;BME280;57728;50.448;18.824;2023-02-21T07:32:35;97108.28;;;7.74;81.43
67397;BME280;57728;50.448;18.824;2023-02-21T07:34:36;97072.19;;;7.26;81.16
67397;BME280;57728;50.448;18.824;2023-02-21T07:36:38;97106.50;;;7.68;80.95
67397;BME280;57728;50.448;18.824;2023-02-21T07:38:40;97094.50;;;7.64;80.95
67397;BME280;57728;50.448;18.824;2023-02-21T07:40:41;97114.97;;;7.71;80.92
67397;BME280;57728;50.448;18.824;2023-02-21T07:42:43;97094.03;;;7.67;80.83
67397;BME280;57728;50.448;18.824;2023-02-21T07:44:46;97263.50;;;8.76;80.80
67397;BME280;57728;50.448;18.824;2023-02-21T07:46:47;97253.84;;;8.56;80.82
67397;BME280;57728;50.448;18.824;2023-02-21T07:48:49;97227.56;;;8.57;80.67
67397;BME280;57728;50.448;18.824;2023-02-21T07:50:51;97211.28;;;8.45;80.75
67397;BME280;57728;50.448;18.824;2023-02-21T07:52:52;97269.75;;;8.88;80.37
67397;BME280;57728;50.448;18.824;2023-02-21T07:54:54;97199.97;;;8.60;80.29
67397;BME280;57728;50.448;18.824;2023-02-21T07:56:56;97243.34;;;8.84;80.22
67397;BME280;57728;50.448;18.824;2023-02-21T07:58:57;97039.13;;;7.48;80.11
67397;BME280;57728;50.448;18.824;2023-02-21T08:00:59;97116.97;;;8.00;80.03
67397;BME280;57728;50.448;18.824;2023-02-21T08:03:03;97187.09;;;8.43;80.07
67397;BME280;57728;50.448;18.824;2023-02-21T08:05:06;97159.88;;;8.26;79.91
67397;BME280;57728;50.448;18.824;2023-02-21T08:07:08;97207.25;;;8.59;80.07
67397;BME280;57728;50.448;18.824;2023-02-21T08:09:11;97267.00;;;9.00;80.07
67397;BME280;57728;50.448;18.824;2023-02-21T08:11:12;97180.84;;;8.43;79.99
67397;BME280;57728;50.448;18.824;2023-02-21T08:13:14;97276.56;;;9.03;79.74
67397;BME280;57728;50.448;18.824;2023-02-21T08:15:16;97148.44;;;8.24;79.33
67397;BME280;57728;50.448;18.824;2023-02-21T08:17:18;97272.31;;;9.07;79.52
67397;BME280;57728;50.448;18.824;2023-02-21T08:19:19;97233.06;;;8.86;79.53
67397;BME280;57728;50.448;18.824;2023-02-21T08:21:22;97191.00;;;8.48;79.53
67397;BME280;57728;50.448;18.824;2023-02-21T08:23:24;97282.69;;;9.10;79.62
67397;BME280;57728;50.448;18.824;2023-02-21T08:25:25;97263.84;;;8.91;79.53
67397;BME280;57728;50.448;18.824;2023-02-21T08:27:27;97216.94;;;8.67;79.39
67397;BME280;57728;50.448;18.824;2023-02-21T08:29:29;97254.28;;;8.89;79.49
67397;BME280;57728;50.448;18.824;2023-02-21T08:31:34;97251.22;;;8.97;79.66
67397;BME280;57728;50.448;18.824;2023-02-21T08:33:40;97240.84;;;8.94;79.49
67397;BME280;57728;50.448;18.824;2023-02-21T08:35:42;97283.13;;;9.31;79.19
67397;BME280;57728;50.448;18.824;2023-02-21T08:37:46;97287.09;;;9.40;78.90
67397;BME280;57728;50.448;18.824;2023-02-21T08:39:51;97093.97;;;8.26;78.58
67397;BME280;57728;50.448;18.824;2023-02-21T08:41:52;97285.16;;;9.52;78.53
67397;BME280;57728;50.448;18.824;2023-02-21T08:43:54;97283.50;;;9.51;78.38
67397;BME280;57728;50.448;18.824;2023-02-21T08:45:56;97141.69;;;8.63;78.21
67397;BME280;57728;50.448;18.824;2023-02-21T08:47:58;97171.03;;;8.66;78.14
67397;BME280;57728;50.448;18.824;2023-02-21T08:50:00;97275.53;;;9.33;78.36
67397;BME280;57728;50.448;18.824;2023-02-21T08:52:03;97239.25;;;9.10;78.37
67397;BME280;57728;50.448;18.824;2023-02-21T08:54:05;97118.25;;;8.45;78.27
67397;BME280;57728;50.448;18.824;2023-02-21T08:56:07;97304.06;;;9.47;78.22
67397;BME280;57728;50.448;18.824;2023-02-21T08:58:11;97247.59;;;9.20;78.50
67397;BME280;57728;50.448;18.824;2023-02-21T09:00:13;97278.00;;;9.46;77.87
67397;BME280;57728;50.448;18.824;2023-02-21T09:02:22;97274.88;;;9.54;77.43
67397;BME280;57728;50.448;18.824;2023-02-21T09:04:34;97287.84;;;9.81;76.70
67397;BME280;57728;50.448;18.824;2023-02-21T09:06:36;97299.88;;;10.14;77.44
67397;BME280;57728;50.448;18.824;2023-02-21T09:08:37;97246.16;;;10.38;74.87
67397;BME280;57728;50.448;18.824;2023-02-21T09:10:41;97307.63;;;11.12;73.67
67397;BME280;57728;50.448;18.824;2023-02-21T09:12:47;97269.56;;;11.17;71.43
67397;BME280;57728;50.448;18.824;2023-02-21T09:14:48;97239.16;;;11.04;69.99
67397;BME280;57728;50.448;18.824;2023-02-21T09:16:50;97207.22;;;10.77;70.07
67397;BME280;57728;50.448;18.824;2023-02-21T09:19:00;97278.75;;;11.11;70.14
67397;BME280;57728;50.448;18.824;2023-02-21T09:21:02;97117.47;;;10.04;70.57
67397;BME280;57728;50.448;18.824;2023-02-21T09:23:04;97183.63;;;10.26;70.52
67397;BME280;57728;50.448;18.824;2023-02-21T09:25:06;97200.72;;;10.39;70.01
67397;BME280;57728;50.448;18.824;2023-02-21T09:27:09;97180.59;;;10.40;71.08
67397;BME280;57728;50.448;18.824;2023-02-21T09:29:13;97331.63;;;11.82;69.42
67397;BME280;57728;50.448;18.824;2023-02-21T09:31:14;97230.16;;;11.80;67.76
67397;BME280;57728;50.448;18.824;2023-02-21T09:33:16;97317.00;;;12.48;67.69
67397;BME280;57728;50.448;18.824;2023-02-21T09:35:19;97152.22;;;11.84;67.75
67397;BME280;57728;50.448;18.824;2023-02-21T09:37:22;97331.47;;;13.23;65.46
67397;BME280;57728;50.448;18.824;2023-02-21T09:39:25;97188.50;;;12.17;64.57
67397;BME280;57728;50.448;18.824;2023-02-21T09:41:29;97212.66;;;12.03;64.80
67397;BME280;57728;50.448;18.824;2023-02-21T09:43:34;97329.59;;;12.54;65.45
67397;BME280;57728;50.448;18.824;2023-02-21T09:45:39;97228.94;;;11.65;65.73
67397;BME280;57728;50.448;18.824;2023-02-21T09:47:53;97164.22;;;11.01;66.56
67397;BME280;57728;50.448;18.824;2023-02-21T09:50:05;97276.63;;;11.63;66.65
67397;BME280;57728;50.448;18.824;2023-02-21T09:52:24;97221.34;;;11.18;67.36
67397;BME280;57728;50.448;18.824;2023-02-21T09:54:36;97170.75;;;10.78;67.24
67397;BME280;57728;50.448;18.824;2023-02-21T09:56:41;97336.38;;;11.92;67.25
67397;BME280;57728;50.448;18.824;2023-02-21T09:58:45;97329.13;;;11.75;67.75
67397;BME280;57728;50.448;18.824;2023-02-21T10:00:50;97314.50;;;11.37;67.99
67397;BME280;57728;50.448;18.824;2023-02-21T10:10:50;97317.41;;;10.91;69.80
67397;BME280;57728;50.448;18.824;2023-02-21T10:13:21;97327.16;;;10.87;70.06
67397;BME280;57728;50.448;18.824;2023-02-21T10:15:52;97316.91;;;11.11;71.29
67397;BME280;57728;50.448;18.824;2023-02-21T10:18:35;97315.53;;;12.35;68.95
67397;BME280;57728;50.448;18.824;2023-02-21T10:20:51;97275.16;;;12.75;66.08
67397;BME280;57728;50.448;18.824;2023-02-21T10:23:15;97297.41;;;12.94;63.54
67397;BME280;57728;50.448;18.824;2023-02-21T10:25:28;97217.22;;;12.25;63.11
67397;BME280;57728;50.448;18.824;2023-02-21T10:27:32;97333.56;;;12.68;63.83
67397;BME280;57728;50.448;18.824;2023-02-21T10:32:00;97243.91;;;11.13;65.09
67397;BME280;57728;50.448;18.824;2023-02-21T10:34:23;97270.50;;;11.06;66.49
67397;BME280;57728;50.448;18.824;2023-02-21T10:36:27;97225.94;;;10.51;67.56
67397;BME280;57728;50.448;18.824;2023-02-21T10:38:30;97327.34;;;10.80;69.14
67397;BME280;57728;50.448;18.824;2023-02-21T10:42:49;97165.72;;;9.57;70.65
67397;BME280;57728;50.448;18.824;2023-02-21T10:44:55;97218.69;;;10.06;71.25
67397;BME280;57728;50.448;18.824;2023-02-21T10:46:59;97354.31;;;11.21;70.50
67397;BME280;57728;50.448;18.824;2023-02-21T10:49:24;97329.81;;;11.43;69.47
67397;BME280;57728;50.448;18.824;2023-02-21T10:51:33;97336.81;;;11.34;69.17
67397;BME280;57728;50.448;18.824;2023-02-21T10:53:36;97353.84;;;11.24;69.06
67397;BME280;57728;50.448;18.824;2023-02-21T10:55:40;97306.25;;;10.71;69.62
67397;BME280;57728;50.448;18.824;2023-02-21T10:57:44;97179.13;;;9.81;70.06
67397;BME280;57728;50.448;18.824;2023-02-21T10:59:51;97377.06;;;10.93;70.48
67397;BME280;57728;50.448;18.824;2023-02-21T11:01:56;97375.63;;;10.85;70.70
67397;BME280;57728;50.448;18.824;2023-02-21T11:04:21;97308.47;;;10.40;71.27
67397;BME280;57728;50.448;18.824;2023-02-21T11:06:44;97248.34;;;9.90;71.24
67397;BME280;57728;50.448;18.824;2023-02-21T11:08:48;97317.44;;;10.23;71.35
67397;BME280;57728;50.448;18.824;2023-02-21T11:10:54;97302.31;;;9.98;71.65
67397;BME280;57728;50.448;18.824;2023-02-21T11:15:20;97205.06;;;8.97;72.18
67397;BME280;57728;50.448;18.824;2023-02-21T11:19:47;97300.50;;;9.58;72.47
67397;BME280;57728;50.448;18.824;2023-02-21T11:21:55;97376.31;;;10.01;72.81
67397;BME280;57728;50.448;18.824;2023-02-21T11:24:02;97344.03;;;9.75;73.08
67397;BME280;57728;50.448;18.824;2023-02-21T11:26:09;97302.91;;;9.43;73.38
67397;BME280;57728;50.448;18.824;2023-02-21T11:30:20;97291.53;;;10.04;73.09
67397;BME280;57728;50.448;18.824;2023-02-21T11:32:36;97371.97;;;10.79;72.78
67397;BME280;57728;50.448;18.824;2023-02-21T11:34:40;97377.16;;;10.98;72.69
67397;BME280;57728;50.448;18.824;2023-02-21T11:36:49;97367.91;;;11.16;71.94
67397;BME280;57728;50.448;18.824;2023-02-21T11:39:22;97366.66;;;11.46;72.00
67397;BME280;57728;50.448;18.824;2023-02-21T11:41:35;97376.91;;;11.83;70.64
67397;BME280;57728;50.448;18.824;2023-02-21T11:43:49;97380.38;;;11.95;69.83
67397;BME280;57728;50.448;18.824;2023-02-21T11:46:23;97376.31;;;11.98;68.58
67397;BME280;57728;50.448;18.824;2023-02-21T11:53:47;97373.63;;;11.36;68.12
67397;BME280;57728;50.448;18.824;2023-02-21T11:58:39;97254.28;;;11.16;68.24
67397;BME280;57728;50.448;18.824;2023-02-21T12:19:20;97355.22;;;12.80;58.02
67397;BME280;57728;50.448;18.824;2023-02-21T12:26:46;97383.44;;;11.82;59.48
67397;BME280;57728;50.448;18.824;2023-02-21T12:33:43;97383.66;;;11.53;60.23
67397;BME280;57728;50.448;18.824;2023-02-21T12:36:01;97370.19;;;11.46;60.37
67397;BME280;57728;50.448;18.824;2023-02-21T12:39:01;97225.59;;;10.47;60.84
67397;BME280;57728;50.448;18.824;2023-02-21T12:46:18;97325.75;;;11.01;61.92
67397;BME280;57728;50.448;18.824;2023-02-21T12:48:53;97368.13;;;11.31;62.20
67397;BME280;57728;50.448;18.824;2023-02-21T12:51:24;97292.53;;;10.82;62.59
67397;BME280;57728;50.448;18.824;2023-02-21T12:53:38;97359.94;;;11.31;63.12
67397;BME280;57728;50.448;18.824;2023-02-21T12:55:54;97312.19;;;11.07;63.59
67397;BME280;57728;50.448;18.824;2023-02-21T13:06:13;97357.25;;;11.36;65.43
67397;BME280;57728;50.448;18.824;2023-02-21T13:10:54;97250.78;;;10.77;65.07